Time;durP1;ratioP1;P1;durP2;ratioP2;P2;SDS_P1;SDS_P2;PMS_P1;PMS_P2;Temp;Humidity;BMP_temperature;BMP_pressure;BME280_temperature;BME280_humidity;BME280_pressure;Samples;Min_cycle;Max_cycle;Signal;HPM_P1;HPM_P2
2022/09/06 00:00:15;;;;;;;29.35;22.65;;;;;;;;;;5054155;28;20634;-76
2022/09/06 00:02:42;;;;;;;26.77;23.98;;;;;;;;;;5046955;28;20471;-78
2022/09/06 00:05:08;;;;;;;28.38;22.85;;;;;;;;;;5049158;28;20502;-79
2022/09/06 00:07:35;;;;;;;26.45;22.80;;;;;;;;;;5064390;28;20146;-79
2022/09/06 00:10:01;;;;;;;26.38;23.58;;;;;;;;;;5050948;28;20087;-79
2022/09/06 00:12:27;;;;;;;25.38;22.67;;;;;;;;;;5050961;28;20442;-78
2022/09/06 00:14:53;;;;;;;25.40;22.17;;;;;;;;;;5051042;28;20021;-78
2022/09/06 00:17:19;;;;;;;24.75;22.13;;;;;;;;;;5067762;28;20071;-78
2022/09/06 00:19:45;;;;;;;26.85;24.10;;;;;;;;;;5063751;28;20021;-78
2022/09/06 00:22:11;;;;;;;25.48;22.55;;;;;;;;;;5037700;28;20029;-79
2022/09/06 00:24:37;;;;;;;26.23;22.00;;;;;;;;;;5061760;28;20060;-79
2022/09/06 00:27:04;;;;;;;25.67;23.02;;;;;;;;;;5076900;28;20021;-78
2022/09/06 00:29:30;;;;;;;26.50;22.67;;;;;;;;;;5073961;28;21013;-79
2022/09/06 00:31:58;;;;;;;31.33;23.95;;;;;;;;;;5054242;28;20029;-80
2022/09/06 00:34:24;;;;;;;24.77;21.10;;;;;;;;;;5055306;28;20028;-80
2022/09/06 00:36:50;;;;;;;25.27;21.33;;;;;;;;;;5053345;28;20388;-78
2022/09/06 00:39:16;;;;;;;25.95;21.63;;;;;;;;;;5057969;28;20056;-78
2022/09/06 00:41:42;;;;;;;24.30;21.65;;;;;;;;;;5056492;28;20411;-78
2022/09/06 00:44:08;;;;;;;23.88;21.33;;;;;;;;;;5054404;28;20099;-79
2022/09/06 00:46:36;;;;;;;26.45;22.08;;;;;;;;;;5068361;28;20029;-76
2022/09/06 00:49:06;;;;;;;25.42;22.13;;;;;;;;;;5055782;28;20013;-78
2022/09/06 00:51:33;;;;;;;28.15;22.92;;;;;;;;;;5058931;28;20443;-76
2022/09/06 00:54:02;;;;;;;29.05;24.13;;;;;;;;;;5055538;28;20035;-76
2022/09/06 00:56:29;;;;;;;30.50;24.23;;;;;;;;;;5067738;28;20021;-79
2022/09/06 00:58:56;;;;;;;24.83;22.23;;;;;;;;;;5054358;28;20099;-80
2022/09/06 01:01:22;;;;;;;28.45;23.25;;;;;;;;;;5054335;28;20052;-76
2022/09/06 01:03:48;;;;;;;28.70;23.60;;;;;;;;;;5054020;28;20025;-76
2022/09/06 01:06:23;;;;;;;25.20;22.25;;;;;;;;;;5053989;28;20021;-77
2022/09/06 01:08:52;;;;;;;27.58;24.60;;;;;;;;;;5053729;28;20133;-77
2022/09/06 01:11:24;;;;;;;29.33;22.55;;;;;;;;;;5053852;28;20178;-77
2022/09/06 01:13:50;;;;;;;31.08;23.40;;;;;;;;;;5053606;28;20512;-77
2022/09/06 01:16:30;;;;;;;24.40;21.80;;;;;;;;;;5053769;28;20032;-77
2022/09/06 01:19:20;;;;;;;24.10;21.60;;;;;;;;;;5053943;28;20029;-77
2022/09/06 01:21:53;;;;;;;25.75;22.05;;;;;;;;;;5063989;28;20076;-78
2022/09/06 01:24:29;;;;;;;24.30;21.67;;;;;;;;;;5053563;28;20025;-79
2022/09/06 01:26:55;;;;;;;32.75;22.50;;;;;;;;;;5055635;28;20025;-78
2022/09/06 01:29:24;;;;;;;24.13;21.52;;;;;;;;;;5053718;28;20384;-78
2022/09/06 01:32:04;;;;;;;28.83;23.67;;;;;;;;;;5067007;28;20017;-78
2022/09/06 01:34:37;;;;;;;25.40;20.77;;;;;;;;;;5052855;28;20124;-78
2022/09/06 01:37:10;;;;;;;27.33;21.42;;;;;;;;;;5054427;28;20083;-79
2022/09/06 01:39:37;;;;;;;25.85;19.83;;;;;;;;;;5053173;28;20253;-77
2022/09/06 01:42:29;;;;;;;22.25;20.05;;;;;;;;;;5067749;28;20021;-76
2022/09/06 01:44:59;;;;;;;22.65;20.35;;;;;;;;;;5064022;28;20041;-79
2022/09/06 01:47:29;;;;;;;21.63;19.42;;;;;;;;;;5053435;28;20021;-78
2022/09/06 01:50:21;;;;;;;22.70;20.08;;;;;;;;;;5066893;28;20016;-76
2022/09/06 01:53:08;;;;;;;23.10;20.60;;;;;;;;;;5053683;28;20062;-77
2022/09/06 01:55:49;;;;;;;22.90;20.42;;;;;;;;;;5039186;28;20033;-78
2022/09/06 01:58:34;;;;;;;23.85;20.48;;;;;;;;;;5052727;28;20032;-80
2022/09/06 02:01:00;;;;;;;27.20;20.08;;;;;;;;;;5064195;28;20033;-77
2022/09/06 02:03:37;;;;;;;22.45;19.33;;;;;;;;;;5052700;28;20052;-78
2022/09/06 02:06:05;;;;;;;22.70;20.30;;;;;;;;;;5061012;28;20052;-79
2022/09/06 02:08:53;;;;;;;22.35;19.90;;;;;;;;;;5057933;28;20538;-78
2022/09/06 02:11:19;;;;;;;23.10;20.30;;;;;;;;;;5062322;28;20082;-77
2022/09/06 02:13:57;;;;;;;23.08;20.50;;;;;;;;;;5059738;28;20518;-77
2022/09/06 02:16:24;;;;;;;21.75;19.63;;;;;;;;;;5064093;28;20403;-78
2022/09/06 02:18:53;;;;;;;22.55;20.15;;;;;;;;;;5066249;28;20020;-78
2022/09/06 02:21:22;;;;;;;22.70;19.40;;;;;;;;;;5052170;28;20017;-78
2022/09/06 02:23:49;;;;;;;24.20;20.75;;;;;;;;;;5053346;28;20028;-78
2022/09/06 02:26:20;;;;;;;24.38;21.02;;;;;;;;;;5052136;28;20021;-77
2022/09/06 02:28:46;;;;;;;28.27;20.42;;;;;;;;;;5061460;28;20024;-78
2022/09/06 02:31:23;;;;;;;26.38;21.92;;;;;;;;;;5056610;28;20017;-78
2022/09/06 02:33:50;;;;;;;27.85;19.42;;;;;;;;;;5062216;28;20078;-77
2022/09/06 02:36:16;;;;;;;22.88;20.38;;;;;;;;;;5057911;28;20524;-79
2022/09/06 02:38:43;;;;;;;23.50;20.15;;;;;;;;;;5071787;28;20437;-78
2022/09/06 02:41:09;;;;;;;28.35;22.35;;;;;;;;;;5058727;28;20024;-79
2022/09/06 02:43:36;;;;;;;24.98;20.90;;;;;;;;;;5071046;28;20032;-77
2022/09/06 02:46:02;;;;;;;26.48;22.08;;;;;;;;;;5059714;28;20025;-77
2022/09/06 02:48:28;;;;;;;25.73;20.88;;;;;;;;;;5051343;28;20021;-78
2022/09/06 02:50:54;;;;;;;26.20;21.52;;;;;;;;;;5053096;28;20036;-80
2022/09/06 02:53:20;;;;;;;28.10;23.13;;;;;;;;;;5054688;28;20033;-76
2022/09/06 02:55:47;;;;;;;31.10;23.58;;;;;;;;;;5053190;28;20009;-78
2022/09/06 02:58:14;;;;;;;28.92;22.63;;;;;;;;;;5051769;28;20029;-77
2022/09/06 03:00:40;;;;;;;26.25;21.92;;;;;;;;;;5051680;28;20021;-77
2022/09/06 03:03:06;;;;;;;24.13;21.48;;;;;;;;;;5051686;28;20045;-77
2022/09/06 03:05:32;;;;;;;24.45;21.30;;;;;;;;;;5055348;28;20115;-77
2022/09/06 03:07:59;;;;;;;29.83;21.55;;;;;;;;;;5061138;28;20107;-79
2022/09/06 03:10:25;;;;;;;25.70;21.27;;;;;;;;;;5065105;28;20029;-78
2022/09/06 03:12:51;;;;;;;28.08;21.10;;;;;;;;;;5052730;28;20033;-78
2022/09/06 03:15:17;;;;;;;23.33;20.92;;;;;;;;;;5037018;28;20021;-78
2022/09/06 03:17:43;;;;;;;28.75;23.42;;;;;;;;;;5052116;28;20069;-77
2022/09/06 03:20:10;;;;;;;26.52;23.67;;;;;;;;;;5063671;28;20041;-78
2022/09/06 03:22:38;;;;;;;31.95;23.95;;;;;;;;;;5052202;28;20017;-78
2022/09/06 03:25:04;;;;;;;27.23;22.63;;;;;;;;;;5052768;28;20021;-77
2022/09/06 03:27:30;;;;;;;26.73;23.88;;;;;;;;;;5063889;28;20021;-77
2022/09/06 03:29:56;;;;;;;29.77;23.45;;;;;;;;;;5065861;28;20020;-78
2022/09/06 03:32:22;;;;;;;31.20;22.50;;;;;;;;;;5050627;28;20025;-77
2022/09/06 03:34:48;;;;;;;32.92;22.85;;;;;;;;;;5051019;28;20032;-78
2022/09/06 03:37:14;;;;;;;35.75;23.00;;;;;;;;;;5050782;28;20029;-78
2022/09/06 03:39:40;;;;;;;27.75;24.98;;;;;;;;;;5088980;28;20048;-77
2022/09/06 03:42:06;;;;;;;28.17;24.30;;;;;;;;;;5105258;28;20144;-77
2022/09/06 03:44:32;;;;;;;26.17;23.35;;;;;;;;;;5074137;28;20074;-78
2022/09/06 03:46:58;;;;;;;34.28;23.83;;;;;;;;;;5091466;28;20021;-79
2022/09/06 03:49:26;;;;;;;26.65;23.65;;;;;;;;;;5073886;28;20055;-78
2022/09/06 03:51:52;;;;;;;28.48;24.55;;;;;;;;;;5106479;28;20018;-77
2022/09/06 03:54:18;;;;;;;30.80;24.35;;;;;;;;;;5073839;28;20379;-76
2022/09/06 03:56:44;;;;;;;30.23;23.10;;;;;;;;;;5096946;28;20111;-78
2022/09/06 03:59:10;;;;;;;30.15;23.70;;;;;;;;;;5107828;28;20048;-77
2022/09/06 04:01:36;;;;;;;34.75;24.77;;;;;;;;;;5073843;28;20027;-79
2022/09/06 04:04:02;;;;;;;29.73;25.05;;;;;;;;;;5107320;28;20061;-77
2022/09/06 04:06:28;;;;;;;31.13;24.58;;;;;;;;;;5073709;28;20520;-76
2022/09/06 04:08:54;;;;;;;27.15;23.48;;;;;;;;;;5093333;28;20467;-77
2022/09/06 04:11:20;;;;;;;29.65;23.85;;;;;;;;;;5083878;28;20026;-77
2022/09/06 04:13:47;;;;;;;31.50;23.67;;;;;;;;;;5077385;28;20510;-76
2022/09/06 04:16:13;;;;;;;30.35;24.88;;;;;;;;;;5107637;28;20084;-77
2022/09/06 04:18:39;;;;;;;29.08;25.13;;;;;;;;;;5107361;28;20027;-80
2022/09/06 04:21:05;;;;;;;32.95;28.60;;;;;;;;;;5113771;28;20022;-76
2022/09/06 04:23:31;;;;;;;35.35;26.90;;;;;;;;;;5081691;28;20320;-79
2022/09/06 04:25:58;;;;;;;31.05;25.77;;;;;;;;;;5091961;28;20628;-77
2022/09/06 04:28:25;;;;;;;27.13;23.92;;;;;;;;;;5093862;28;20038;-76
2022/09/06 04:30:56;;;;;;;34.08;24.05;;;;;;;;;;5093812;28;20023;-76
2022/09/06 04:33:25;;;;;;;35.13;27.27;;;;;;;;;;5079386;28;20190;-78
2022/09/06 04:35:56;;;;;;;32.95;26.05;;;;;;;;;;5093595;28;20481;-75
2022/09/06 04:38:23;;;;;;;33.50;27.58;;;;;;;;;;5088999;28;20109;-79
2022/09/06 04:40:49;;;;;;;30.52;25.30;;;;;;;;;;5089342;28;20162;-76
2022/09/06 04:43:15;;;;;;;28.15;24.52;;;;;;;;;;5103601;28;20042;-76
2022/09/06 04:45:41;;;;;;;27.15;22.10;;;;;;;;;;5073415;28;20475;-76
2022/09/06 04:48:07;;;;;;;31.10;23.42;;;;;;;;;;5087474;28;20532;-76
2022/09/06 04:50:33;;;;;;;28.98;23.13;;;;;;;;;;5107115;28;20016;-76
2022/09/06 04:52:59;;;;;;;34.25;24.05;;;;;;;;;;5091095;28;20458;-78
2022/09/06 04:55:28;;;;;;;30.63;24.30;;;;;;;;;;5107034;28;20016;-75
2022/09/06 04:57:55;;;;;;;36.58;28.95;;;;;;;;;;5112172;28;20028;-78
2022/09/06 05:00:21;;;;;;;36.85;31.35;;;;;;;;;;5078314;28;20025;-78
2022/09/06 05:02:47;;;;;;;31.05;25.95;;;;;;;;;;5107942;28;20111;-76
2022/09/06 05:05:13;;;;;;;35.58;30.40;;;;;;;;;;5084729;28;20542;-76
2022/09/06 05:07:39;;;;;;;34.95;24.88;;;;;;;;;;5091407;28;20074;-76
2022/09/06 05:10:05;;;;;;;35.78;27.17;;;;;;;;;;5109150;28;20016;-77
2022/09/06 05:12:31;;;;;;;28.30;25.33;;;;;;;;;;5110779;28;20115;-78
2022/09/06 05:14:57;;;;;;;28.80;23.52;;;;;;;;;;5099561;28;20412;-76
2022/09/06 05:17:23;;;;;;;31.45;28.05;;;;;;;;;;5104371;28;20069;-77
2022/09/06 05:19:49;;;;;;;39.25;31.80;;;;;;;;;;5096963;28;20383;-77
2022/09/06 05:22:15;;;;;;;30.25;26.98;;;;;;;;;;5110596;28;20383;-79
2022/09/06 05:24:41;;;;;;;32.70;26.90;;;;;;;;;;5110441;28;20592;-78
2022/09/06 05:27:08;;;;;;;30.73;27.40;;;;;;;;;;5086859;28;20020;-78
2022/09/06 05:29:34;;;;;;;32.08;25.08;;;;;;;;;;5095274;28;20030;-79
2022/09/06 05:32:00;;;;;;;31.92;24.98;;;;;;;;;;5129004;27;20028;-79
2022/09/06 05:34:26;;;;;;;26.65;22.73;;;;;;;;;;5114839;28;20035;-79
2022/09/06 05:36:52;;;;;;;25.17;22.48;;;;;;;;;;5083792;28;20115;-80
2022/09/06 05:39:20;;;;;;;29.52;22.65;;;;;;;;;;5098429;28;20084;-79
2022/09/06 05:41:46;;;;;;;26.13;23.38;;;;;;;;;;5126573;27;20031;-84
2022/09/06 05:44:13;;;;;;;31.95;25.90;;;;;;;;;;5096793;28;20110;-80
2022/09/06 05:46:44;;;;;;;26.65;23.00;;;;;;;;;;5078506;28;20027;-78
2022/09/06 05:49:10;;;;;;;35.20;23.25;;;;;;;;;;5121161;27;20020;-78
2022/09/06 05:51:36;;;;;;;36.60;25.10;;;;;;;;;;5090256;28;20023;-80
2022/09/06 05:54:03;;;;;;;34.22;26.95;;;;;;;;;;5088950;28;20122;-77
2022/09/06 05:56:29;;;;;;;40.00;26.92;;;;;;;;;;5109281;27;20073;-77
2022/09/06 05:58:55;;;;;;;34.10;23.42;;;;;;;;;;5095012;28;20040;-78
2022/09/06 06:01:23;;;;;;;26.23;23.40;;;;;;;;;;5083085;28;20020;-77
2022/09/06 06:03:59;;;;;;;26.52;22.45;;;;;;;;;;5100328;28;20481;-77
2022/09/06 06:06:26;;;;;;;35.60;31.73;;;;;;;;;;5084411;28;20027;-78
2022/09/06 06:08:53;;;;;;;32.17;23.35;;;;;;;;;;5100309;28;20020;-75
2022/09/06 06:11:19;;;;;;;30.42;22.80;;;;;;;;;;5119619;27;20020;-75
2022/09/06 06:13:45;;;;;;;29.17;21.67;;;;;;;;;;5085985;28;20655;-76
2022/09/06 06:16:12;;;;;;;25.15;21.33;;;;;;;;;;5103206;28;20023;-78
2022/09/06 06:18:39;;;;;;;36.85;27.70;;;;;;;;;;5109043;28;20023;-78
2022/09/06 06:21:11;;;;;;;29.48;24.73;;;;;;;;;;5107788;28;20035;-77
2022/09/06 06:23:37;;;;;;;29.83;24.23;;;;;;;;;;5093652;28;20023;-75
2022/09/06 06:26:04;;;;;;;28.45;22.23;;;;;;;;;;5112769;28;20065;-78
2022/09/06 06:28:30;;;;;;;31.92;22.63;;;;;;;;;;5101992;28;20120;-77
2022/09/06 06:30:56;;;;;;;29.25;21.17;;;;;;;;;;5079190;28;20019;-78
2022/09/06 06:33:22;;;;;;;28.63;21.20;;;;;;;;;;5102543;28;20115;-77
2022/09/06 06:36:01;;;;;;;23.65;20.63;;;;;;;;;;5101517;28;20011;-77
2022/09/06 06:38:34;;;;;;;29.30;21.02;;;;;;;;;;5117005;27;20135;-78
2022/09/06 06:41:00;;;;;;;;;;;;;;;;;;5099410;28;20024;-76
2022/09/06 06:43:27;;;;;;;26.65;22.27;;;;;;;;;;5082660;28;20380;-78
2022/09/06 06:45:53;;;;;;;30.25;20.25;;;;;;;;;;5078467;28;20019;-77
2022/09/06 06:48:19;;;;;;;31.98;21.90;;;;;;;;;;5086389;28;20102;-76
2022/09/06 06:50:45;;;;;;;32.10;20.55;;;;;;;;;;5083505;28;20050;-78
2022/09/06 06:53:11;;;;;;;28.25;21.95;;;;;;;;;;5100830;28;20055;-78
2022/09/06 06:55:38;;;;;;;32.78;20.50;;;;;;;;;;5102405;28;20017;-78
2022/09/06 06:58:04;;;;;;;24.98;20.98;;;;;;;;;;5109720;28;20019;-77
2022/09/06 07:00:30;;;;;;;29.85;20.98;;;;;;;;;;5098207;28;20103;-75
2022/09/06 07:02:56;;;;;;;26.40;19.63;;;;;;;;;;5104578;28;20011;-76
2022/09/06 07:05:23;;;;;;;24.58;20.52;;;;;;;;;;5103837;28;20068;-78
2022/09/06 07:07:49;;;;;;;25.75;20.40;;;;;;;;;;5088634;28;20019;-75
2022/09/06 07:10:15;;;;;;;24.17;20.20;;;;;;;;;;5098552;28;20027;-78
2022/09/06 07:12:41;;;;;;;29.75;19.30;;;;;;;;;;5077047;28;20032;-76
2022/09/06 07:15:07;;;;;;;26.50;19.05;;;;;;;;;;5095996;28;20031;-76
2022/09/06 07:17:34;;;;;;;24.70;20.75;;;;;;;;;;5072050;28;20033;-77
2022/09/06 07:20:00;;;;;;;23.90;20.67;;;;;;;;;;5092251;28;20016;-78
2022/09/06 07:22:26;;;;;;;25.50;20.38;;;;;;;;;;5093942;28;20040;-77
2022/09/06 07:24:52;;;;;;;25.13;18.25;;;;;;;;;;5098079;28;20023;-77
2022/09/06 07:27:18;;;;;;;23.88;19.25;;;;;;;;;;5096519;28;20016;-74
2022/09/06 07:29:44;;;;;;;23.98;18.65;;;;;;;;;;5100614;28;20012;-75
2022/09/06 07:32:10;;;;;;;23.05;19.30;;;;;;;;;;5090100;28;20138;-77
2022/09/06 07:34:38;;;;;;;23.80;21.20;;;;;;;;;;5117180;27;20073;-76
2022/09/06 07:37:04;;;;;;;24.50;19.60;;;;;;;;;;5097917;28;20008;-76
2022/09/06 07:39:31;;;;;;;24.55;19.42;;;;;;;;;;5119359;27;20039;-77
2022/09/06 07:41:58;;;;;;;21.60;18.25;;;;;;;;;;5097012;27;20020;-78
2022/09/06 07:44:24;;;;;;;21.77;17.27;;;;;;;;;;5102281;28;20085;-78
2022/09/06 07:46:50;;;;;;;24.58;18.15;;;;;;;;;;5082874;28;20054;-79
2022/09/06 07:49:16;;;;;;;20.88;18.30;;;;;;;;;;5102275;28;20024;-79
2022/09/06 07:51:43;;;;;;;26.20;18.05;;;;;;;;;;5089181;28;20038;-78
2022/09/06 07:54:09;;;;;;;22.20;18.33;;;;;;;;;;5094529;28;20040;-79
2022/09/06 07:56:35;;;;;;;26.02;18.98;;;;;;;;;;5095908;28;20016;-80
2022/09/06 07:59:02;;;;;;;44.08;21.13;;;;;;;;;;5081200;28;20110;-77
2022/09/06 08:01:28;;;;;;;27.13;18.88;;;;;;;;;;5077253;28;20032;-78
2022/09/06 08:03:55;;;;;;;25.85;17.35;;;;;;;;;;5114963;27;20024;-79
2022/09/06 08:06:22;;;;;;;18.17;16.25;;;;;;;;;;5115092;28;20020;-76
2022/09/06 08:08:48;;;;;;;24.00;18.30;;;;;;;;;;5113807;27;20069;-79
2022/09/06 08:11:14;;;;;;;25.30;17.77;;;;;;;;;;5119054;27;20031;-76
2022/09/06 08:13:41;;;;;;;22.38;16.70;;;;;;;;;;5081405;28;20550;-79
2022/09/06 08:16:08;;;;;;;20.90;17.52;;;;;;;;;;5073888;28;20028;-81
2022/09/06 08:18:34;;;;;;;24.38;18.08;;;;;;;;;;5114926;27;20126;-78
2022/09/06 08:21:08;;;;;;;22.33;16.60;;;;;;;;;;5101930;27;20023;-76
2022/09/06 08:23:34;;;;;;;;;;;;;;;;;;5074529;28;21097;-79
2022/09/06 08:26:00;;;;;;;26.17;17.25;;;;;;;;;;5071436;28;19908;-78
2022/09/06 08:28:26;;;;;;;19.95;15.63;;;;;;;;;;5110403;28;20123;-77
2022/09/06 08:30:52;;;;;;;17.75;15.70;;;;;;;;;;5093945;28;20023;-78
2022/09/06 08:33:24;;;;;;;17.65;14.73;;;;;;;;;;5112050;28;20028;-76
2022/09/06 08:35:59;;;;;;;15.35;13.77;;;;;;;;;;5093689;28;20440;-79
2022/09/06 08:38:26;;;;;;;22.15;15.75;;;;;;;;;;5079330;28;20048;-77
2022/09/06 08:40:54;;;;;;;18.17;15.88;;;;;;;;;;5093771;28;20027;-78
2022/09/06 08:43:21;;;;;;;15.98;14.27;;;;;;;;;;5116057;28;20030;-78
2022/09/06 08:45:48;;;;;;;17.50;13.95;;;;;;;;;;5112220;27;20098;-76
2022/09/06 08:48:14;;;;;;;17.42;12.77;;;;;;;;;;5091766;28;20529;-78
2022/09/06 08:50:44;;;;;;;14.93;13.23;;;;;;;;;;5093804;28;20026;-77
2022/09/06 08:53:14;;;;;;;22.30;15.18;;;;;;;;;;5074383;28;20119;-77
2022/09/06 08:55:52;;;;;;;21.05;14.48;;;;;;;;;;5092055;28;20110;-80
2022/09/06 08:58:37;;;;;;;11.77;10.40;;;;;;;;;;5096921;28;20016;-76
2022/09/06 09:01:11;;;;;;;15.25;13.05;;;;;;;;;;5100976;28;20089;-78
2022/09/06 09:03:38;;;;;;;16.65;13.48;;;;;;;;;;5083780;28;20019;-76
2022/09/06 09:06:05;;;;;;;14.30;10.65;;;;;;;;;;5122608;27;20088;-78
2022/09/06 09:08:43;;;;;;;14.70;9.85;;;;;;;;;;5079155;28;20020;-78
2022/09/06 09:11:24;;;;;;;15.70;12.93;;;;;;;;;;5106120;28;20030;-77
2022/09/06 09:13:55;;;;;;;11.98;9.15;;;;;;;;;;5098073;28;20028;-77
2022/09/06 09:16:21;;;;;;;11.48;8.43;;;;;;;;;;5116749;27;20363;-78
2022/09/06 09:18:59;;;;;;;11.88;10.10;;;;;;;;;;5103625;28;20047;-75
2022/09/06 09:21:26;;;;;;;21.80;13.38;;;;;;;;;;5062468;28;20032;-75
2022/09/06 09:23:57;;;;;;;10.48;9.38;;;;;;;;;;5084473;28;20090;-75
2022/09/06 09:26:25;;;;;;;10.55;8.20;;;;;;;;;;5085694;28;20017;-77
2022/09/06 09:29:05;;;;;;;15.20;10.25;;;;;;;;;;5102176;28;20039;-76
2022/09/06 09:31:35;;;;;;;12.52;9.40;;;;;;;;;;5058062;28;20031;-76
2022/09/06 09:34:03;;;;;;;9.80;8.77;;;;;;;;;;5090355;28;20154;-77
2022/09/06 09:36:30;;;;;;;13.48;9.85;;;;;;;;;;5093708;28;20016;-75
2022/09/06 09:38:57;;;;;;;13.90;8.57;;;;;;;;;;5112213;27;20051;-76
2022/09/06 09:41:28;;;;;;;100.38;90.25;;;;;;;;;;5094303;28;20383;-75
2022/09/06 09:44:26;;;;;;;13.45;11.15;;;;;;;;;;5095065;28;20027;-77
2022/09/06 09:46:52;;;;;;;18.90;16.02;;;;;;;;;;5077428;28;20025;-78
2022/09/06 09:49:23;;;;;;;26.05;23.23;;;;;;;;;;5117165;27;20016;-76
2022/09/06 09:52:04;;;;;;;22.83;20.05;;;;;;;;;;5074906;28;20027;-77
2022/09/06 09:54:31;;;;;;;10.77;9.52;;;;;;;;;;5090953;28;20024;-76
2022/09/06 09:56:58;;;;;;;8.57;7.72;;;;;;;;;;5093910;28;20069;-76
2022/09/06 09:59:28;;;;;;;98.00;87.68;;;;;;;;;;5096501;28;20031;-76
2022/09/06 10:01:56;;;;;;;67.50;60.45;;;;;;;;;;5113654;27;20063;-76
2022/09/06 10:04:30;;;;;;;69.40;62.08;;;;;;;;;;5090291;28;20043;-78
2022/09/06 10:07:14;;;;;;;148.38;133.55;;;;;;;;;;5098520;28;20028;-78
2022/09/06 10:09:42;;;;;;;105.13;94.57;;;;;;;;;;5117690;27;20054;-77
2022/09/06 10:12:13;;;;;;;79.57;71.28;;;;;;;;;;5096883;28;20036;-77
2022/09/06 10:14:41;;;;;;;43.00;38.70;;;;;;;;;;5093510;28;20028;-78
2022/09/06 10:17:07;;;;;;;48.10;42.97;;;;;;;;;;5077949;28;20024;-77
2022/09/06 10:19:45;;;;;;;47.38;42.88;;;;;;;;;;5118979;27;20024;-77
2022/09/06 10:22:11;;;;;;;17.48;13.85;;;;;;;;;;5116611;27;20024;-77
2022/09/06 10:24:40;;;;;;;19.52;17.63;;;;;;;;;;5115047;27;20125;-80
2022/09/06 10:27:07;;;;;;;81.20;72.35;;;;;;;;;;5094765;28;20035;-76
2022/09/06 10:29:39;;;;;;;18.13;16.20;;;;;;;;;;5095269;28;20022;-76
2022/09/06 10:32:13;;;;;;;19.48;16.58;;;;;;;;;;5089772;28;20119;-78
2022/09/06 10:34:45;;;;;;;19.70;9.68;;;;;;;;;;5113286;27;20032;-76
2022/09/06 10:37:29;;;;;;;43.72;39.17;;;;;;;;;;5097472;28;20096;-79
2022/09/06 10:39:58;;;;;;;14.07;10.32;;;;;;;;;;5090602;28;20548;-76
2022/09/06 10:42:42;;;;;;;14.65;11.73;;;;;;;;;;5073268;28;20029;-77
2022/09/06 10:45:11;;;;;;;32.67;29.30;;;;;;;;;;5088130;28;20024;-77
2022/09/06 10:48:00;;;;;;;11.80;9.07;;;;;;;;;;5081452;28;20077;-78
2022/09/06 10:50:35;;;;;;;19.55;10.75;;;;;;;;;;5074580;28;20057;-78
2022/09/06 10:53:06;;;;;;;21.08;18.92;;;;;;;;;;5108443;28;20036;-82
2022/09/06 10:55:32;;;;;;;25.40;22.67;;;;;;;;;;5120909;27;20140;-77
2022/09/06 10:58:03;;;;;;;37.38;33.17;;;;;;;;;;5090324;28;20043;-79
2022/09/06 11:00:32;;;;;;;25.23;22.58;;;;;;;;;;5111457;27;20023;-80
2022/09/06 11:03:06;;;;;;;33.90;30.42;;;;;;;;;;5108209;28;20072;-78
2022/09/06 11:05:36;;;;;;;11.45;7.35;;;;;;;;;;5108178;28;20052;-78
2022/09/06 11:08:04;;;;;;;9.07;6.95;;;;;;;;;;5075549;28;20039;-79
2022/09/06 11:10:35;;;;;;;11.57;10.20;;;;;;;;;;5120163;27;20099;-78
2022/09/06 11:13:16;;;;;;;9.88;7.22;;;;;;;;;;5076501;28;20074;-81
2022/09/06 11:16:05;;;;;;;14.80;11.80;;;;;;;;;;5108571;28;20047;-79
2022/09/06 11:18:41;;;;;;;14.50;9.88;;;;;;;;;;5065779;28;20028;-79
2022/09/06 11:21:22;;;;;;;13.65;10.77;;;;;;;;;;5074956;28;20032;-80
2022/09/06 11:23:52;;;;;;;25.48;21.30;;;;;;;;;;5119966;27;20107;-77
2022/09/06 11:26:41;;;;;;;11.98;8.48;;;;;;;;;;5100241;28;20098;-79
2022/09/06 11:29:19;;;;;;;9.73;7.78;;;;;;;;;;5096006;28;20027;-77
2022/09/06 11:31:53;;;;;;;17.85;16.08;;;;;;;;;;5108280;28;20035;-80
2022/09/06 11:34:21;;;;;;;12.57;8.68;;;;;;;;;;5093612;28;20028;-79
2022/09/06 11:36:49;;;;;;;14.25;12.32;;;;;;;;;;5095999;28;20038;-79
2022/09/06 11:39:23;;;;;;;9.93;9.02;;;;;;;;;;5063420;28;20056;-78
2022/09/06 11:41:49;;;;;;;7.95;6.70;;;;;;;;;;5081256;28;20020;-79
2022/09/06 11:44:35;;;;;;;30.63;27.63;;;;;;;;;;5053067;28;20187;-79
2022/09/06 11:47:01;;;;;;;40.55;36.50;;;;;;;;;;5057149;28;20502;-79
2022/09/06 11:49:29;;;;;;;13.07;9.63;;;;;;;;;;5059062;28;20021;-79
2022/09/06 11:51:55;;;;;;;11.43;10.27;;;;;;;;;;5060107;28;20114;-78
2022/09/06 11:54:27;;;;;;;13.93;9.35;;;;;;;;;;5060130;28;20025;-79
2022/09/06 11:57:22;;;;;;;51.78;46.85;;;;;;;;;;5062592;28;20021;-79
2022/09/06 11:59:51;;;;;;;9.05;8.02;;;;;;;;;;5048184;28;20174;-78
2022/09/06 12:02:36;;;;;;;52.08;47.13;;;;;;;;;;5060771;28;20024;-80
2022/09/06 12:05:06;;;;;;;13.35;10.65;;;;;;;;;;5059351;28;20017;-78
2022/09/06 12:07:33;;;;;;;9.35;7.25;;;;;;;;;;5057127;28;20024;-80
2022/09/06 12:10:18;;;;;;;10.10;6.75;;;;;;;;;;5058598;28;20012;-79
2022/09/06 12:12:51;;;;;;;49.20;44.33;;;;;;;;;;5060411;28;20036;-78
2022/09/06 12:15:28;;;;;;;20.58;15.73;;;;;;;;;;5063346;28;20546;-79
2022/09/06 12:17:54;;;;;;;10.32;7.93;;;;;;;;;;5075753;28;20024;-78
2022/09/06 12:20:39;;;;;;;12.25;9.05;;;;;;;;;;5062136;28;20017;-78
2022/09/06 12:23:05;;;;;;;11.10;8.05;;;;;;;;;;5044115;28;20503;-80
2022/09/06 12:25:34;;;;;;;18.15;16.30;;;;;;;;;;5062159;28;20016;-79
2022/09/06 12:28:04;;;;;;;10.05;8.93;;;;;;;;;;5061899;28;20471;-79
2022/09/06 12:30:37;;;;;;;8.68;7.70;;;;;;;;;;5061403;28;20617;-79
2022/09/06 12:33:05;;;;;;;;;;;;;;;;;;5059114;28;20064;-77
2022/09/06 12:35:33;;;;;;;8.55;7.45;;;;;;;;;;5064459;28;19995;-77
2022/09/06 12:38:03;;;;;;;26.15;23.42;;;;;;;;;;5050623;28;20090;-79
2022/09/06 12:40:40;;;;;;;17.77;12.70;;;;;;;;;;5051781;28;20487;-76
2022/09/06 12:43:08;;;;;;;34.20;31.02;;;;;;;;;;5070805;28;20036;-77
2022/09/06 12:45:34;;;;;;;21.58;14.43;;;;;;;;;;5054652;28;20056;-79
2022/09/06 12:48:15;;;;;;;10.10;7.32;;;;;;;;;;5050915;28;20021;-79
2022/09/06 12:50:41;;;;;;;8.55;7.07;;;;;;;;;;5060331;28;20021;-79
2022/09/06 12:53:23;;;;;;;24.83;21.50;;;;;;;;;;5050417;28;20487;-79
2022/09/06 12:55:49;;;;;;;19.63;15.25;;;;;;;;;;5050756;28;20112;-79
2022/09/06 12:58:15;;;;;;;33.97;30.73;;;;;;;;;;5051059;28;20025;-79
2022/09/06 13:00:53;;;;;;;13.57;10.90;;;;;;;;;;5054046;28;20017;-78
2022/09/06 13:03:19;;;;;;;21.00;17.08;;;;;;;;;;5055849;28;21106;-77
2022/09/06 13:05:46;;;;;;;9.30;7.82;;;;;;;;;;5053647;28;20029;-78
2022/09/06 13:08:24;;;;;;;22.27;12.82;;;;;;;;;;5041727;28;20057;-75
2022/09/06 13:10:51;;;;;;;7.50;6.80;;;;;;;;;;5054783;28;20370;-77
2022/09/06 13:13:22;;;;;;;12.30;10.75;;;;;;;;;;5046638;28;20047;-78
2022/09/06 13:15:51;;;;;;;14.27;8.65;;;;;;;;;;5049582;28;20549;-77
2022/09/06 13:18:30;;;;;;;29.17;26.38;;;;;;;;;;5050402;28;20021;-75
2022/09/06 13:21:02;;;;;;;17.00;15.35;;;;;;;;;;5048005;28;20383;-78
2022/09/06 13:23:28;;;;;;;10.43;7.75;;;;;;;;;;5049406;28;20480;-75
2022/09/06 13:25:55;;;;;;;14.45;8.77;;;;;;;;;;5050569;28;20074;-77
2022/09/06 13:28:31;;;;;;;13.35;12.02;;;;;;;;;;5050284;28;20018;-79
2022/09/06 13:31:16;;;;;;;12.40;8.73;;;;;;;;;;5051106;28;20060;-77
2022/09/06 13:33:42;;;;;;;11.82;7.55;;;;;;;;;;5051860;28;20037;-76
2022/09/06 13:36:18;;;;;;;79.55;72.07;;;;;;;;;;5053600;28;20234;-78
2022/09/06 13:38:45;;;;;;;95.10;86.78;;;;;;;;;;5074281;28;20127;-77
2022/09/06 13:41:26;;;;;;;26.63;23.95;;;;;;;;;;5114374;27;20031;-78
2022/09/06 13:44:10;;;;;;;17.02;15.38;;;;;;;;;;5073123;28;20031;-78
2022/09/06 13:46:36;;;;;;;28.00;25.48;;;;;;;;;;5093542;28;20064;-77
2022/09/06 13:49:04;;;;;;;22.02;19.92;;;;;;;;;;5094037;28;20091;-78
2022/09/06 13:51:30;;;;;;;10.70;8.40;;;;;;;;;;5093979;28;20038;-78
2022/09/06 13:54:06;;;;;;;38.22;34.60;;;;;;;;;;5104900;28;20040;-76
2022/09/06 13:56:32;;;;;;;7.82;7.05;;;;;;;;;;5109515;28;20600;-76
2022/09/06 13:58:58;;;;;;;10.57;9.43;;;;;;;;;;5109439;28;20039;-77
2022/09/06 14:01:24;;;;;;;22.83;20.50;;;;;;;;;;5075909;28;20012;-76
2022/09/06 14:03:51;;;;;;;24.25;22.02;;;;;;;;;;5075266;28;20595;-76
2022/09/06 14:06:17;;;;;;;18.50;16.55;;;;;;;;;;5075304;28;20020;-78
2022/09/06 14:08:43;;;;;;;21.65;19.65;;;;;;;;;;5075532;28;20032;-77
2022/09/06 14:11:09;;;;;;;32.25;29.17;;;;;;;;;;5100012;28;20024;-77
2022/09/06 14:13:35;;;;;;;11.45;8.63;;;;;;;;;;5083390;28;20064;-77
2022/09/06 14:16:04;;;;;;;19.98;18.02;;;;;;;;;;5108973;28;20024;-75
2022/09/06 14:18:30;;;;;;;12.20;9.40;;;;;;;;;;5097889;28;20073;-79
2022/09/06 14:20:59;;;;;;;8.90;8.00;;;;;;;;;;5099823;28;20022;-78
2022/09/06 14:23:26;;;;;;;8.27;7.07;;;;;;;;;;5101093;28;20478;-75
2022/09/06 14:25:56;;;;;;;9.10;7.90;;;;;;;;;;5092876;28;20103;-77
2022/09/06 14:28:23;;;;;;;10.82;7.32;;;;;;;;;;5061347;28;20070;-77
2022/09/06 14:30:49;;;;;;;11.18;9.98;;;;;;;;;;5109958;27;20475;-77
2022/09/06 14:33:15;;;;;;;13.90;11.60;;;;;;;;;;5093032;28;20478;-78